x

Santa Monica Basin - 33nm Wsw Of Santa Monica, Ca (46025) Weather Station

11:20 - Fri 28th Jul 2017 All times are PDT. -7 hours from GMT.

  • Wind
    7mph, 11mph gusts
  • Sea Temp 71°f
  • Sea Pressure 1013.8mb
  • Santa Monica Basin - 33nm Wsw Of Santa Monica, Ca
  • Santa Monica Basin - 33nm Wsw Of Santa Monica, Ca

More Historic Weather Station data

Upgrade to MSW Pro to gain access to the past 30 days of data for over 8000 Wavebouys and Weather Stations around the globe.

Join Pro

Comparision Forecast

View Surf forecast
   
ven. 07/28 11:20  -   -   -  7 11 mph 1013.8mb 71f
11:10  -   -   -  4 7 mph 1013.9mb 71f
11:00  -   -   -  4 9 mph 1013.9mb 71f
10:50 3ft 11s 7s 7 9 mph 1013.9mb 71f
10:40 3ft  -  7s 4 9 mph 1013.8mb 71f
10:30  -   -   -  7 9 mph 1013.9mb 71f
10:20  -   -   -  4 7 mph 1013.8mb 71f
10:10  -   -   -  4 9 mph 1013.5mb 70f
10:00  -   -   -  4 7 mph 1013.6mb 70f
9:50 3ft 11s 8s 4 9 mph 1013.5mb 71f
9:40 3ft  -  8s 4 9 mph 1013.5mb 71f
9:30  -   -   -  7 9 mph 1013.5mb 71f
9:20  -   -   -  7 9 mph 1013.5mb 71f
9:10  -   -   -  7 9 mph 1013.5mb 71f
9:00  -   -   -  7 9 mph 1013.4mb 71f
8:50 3ft 12s 7s 4 9 mph 1013.3mb 71f
8:40 3ft  -  7s 4 7 mph 1013.1mb 71f
8:30  -   -   -  4 7 mph 1013.3mb 71f
8:20  -   -   -  4 7 mph 1013mb 71f
8:10  -   -   -  7 11 mph 1013mb 71f
8:00  -   -   -  9 11 mph 1013mb 71f
7:50 2.5ft 11s 6s 9 11 mph 1012.9mb 71f
7:40  -   -   -  7 11 mph 1012.9mb 71f
7:30  -   -   -  7 9 mph 1012.6mb 71f
7:20  -   -   -  4 7 mph 1012.6mb 71f
7:10  -   -   -  4 7 mph 1012.6mb 71f
7:00  -   -   -  7 9 mph 1012.6mb 71f
6:50 3ft 12s 6s 7 11 mph 1012.6mb 71f
6:40 3ft  -  6s 7 7 mph 1012.5mb 71f
6:30  -   -   -  4 9 mph 1012.6mb 71f
6:20  -   -   -  4 9 mph 1012.6mb 71f
6:10  -   -   -  7 9 mph 1012.8mb 71f
6:00  -   -   -  7 11 mph 1012.6mb 71f
5:50 3ft 13s 6s 4 9 mph 1012.5mb 71f
5:40 3ft  -  6s 7 9 mph 1012.5mb 71f
5:30  -   -   -  4 9 mph 1012.4mb 71f
5:20  -   -   -  4 9 mph 1012.1mb 71f
5:10  -   -   -  4 7 mph 1012.3mb 71f
5:00  -   -   -  4 7 mph 1012.3mb 71f
4:50 3ft 11s 6s 4 7 mph 1012.3mb 71f
4:40 3ft  -  6s 4 7 mph 1012.3mb 71f
4:30  -   -   -  4 7 mph 1012.1mb 71f
4:20  -   -   -  4 7 mph 1012mb 71f
4:10  -   -   -  4 7 mph 1012mb 71f
4:00  -   -   -  4 7 mph 1011.9mb 71f
3:50 3.5ft 11s 6s 4 7 mph 1011.9mb 71f
3:40 3.5ft  -  6s 4 9 mph 1011.8mb 71f
3:30  -   -   -  4 7 mph 1011.9mb 71f
3:20  -   -   -  4 7 mph 1012mb 71f
3:10  -   -   -  4 7 mph 1011.9mb 71f
3:00  -   -   -  4 7 mph 1012mb 71f
2:50 3ft 11s 6s 4 7 mph 1011.8mb 71f
2:40  -   -   -  7 9 mph 1011.8mb 71f
2:30  -   -   -  7 7 mph 1011.9mb 71f
2:20  -   -   -  2 7 mph 1012mb 71f
2:10  -   -   -   -  2 mph 1012mb 71f
2:00  -   -   -  2 4 mph 1012mb 71f
1:50 2.5ft 6s 5s 2 4 mph 1012.1mb 71f
1:40 2.5ft  -  5s 2 7 mph 1012.1mb 71f
1:30  -   -   -  4 7 mph 1012.1mb 71f
1:20  -   -   -  7 9 mph 1012.1mb 71f
1:10  -   -   -  7 9 mph 1012.3mb 71f
1:00  -   -   -  7 9 mph 1012.4mb 71f
12:50 3ft 5s 5s 4 7 mph 1012.3mb 71f
12:40 3ft  -  5s 4 7 mph 1012.3mb 71f
12:30  -   -   -  4 7 mph 1012.4mb 71f
12:20  -   -   -  7 9 mph 1012.4mb 71f
12:10  -   -   -  4 7 mph 1012.4mb 71f
12:00  -   -   -  7 11 mph 1012.4mb 71f
jeu. 07/27 11:50 3ft 6s 5s 7 9 mph 1012.4mb 71f
11:40 3ft  -  5s 7 9 mph 1012.6mb 71f
11:30  -   -   -  7 9 mph 1012.6mb 71f
11:20  -   -   -  7 9 mph 1012.5mb 71f
11:10  -   -   -  9 11 mph 1012.5mb 71f
11:00  -   -   -  9 11 mph 1012.5mb 71f
10:50 3.5ft 13s 5s 4 9 mph 1012.4mb 71f
10:40 3.5ft  -  5s 7 9 mph 1012.4mb 71f
10:30  -   -   -  9 11 mph 1012.4mb 71f
10:20  -   -   -  9 11 mph 1012.3mb 71f
10:10  -   -   -  9 13 mph 1012.3mb 71f
10:00  -   -   -  11 13 mph 1012mb 71f
9:50 3.5ft 6s 5s 11 16 mph 1011.9mb 71f
9:40 3.5ft  -  5s 11 13 mph 1012mb 71f
9:30  -   -   -  11 16 mph 1011.9mb 71f
9:20  -   -   -  11 13 mph 1012mb 71f
9:10  -   -   -  7 13 mph 1012mb 71f
9:00  -   -   -  7 7 mph 1011.8mb 71f
8:50 3.5ft 5s 5s 9 11 mph 1011.8mb 71f
8:40 3.5ft  -  5s 11 16 mph 1011.5mb 71f
8:30  -   -   -  13 16 mph 1011.4mb 71f
8:20  -   -   -  13 16 mph 1011.5mb 71f
8:10  -   -   -  13 16 mph 1011.5mb 71f
8:00  -   -   -  13 16 mph 1011.3mb 71f
7:50 3ft 9s 4s 13 18 mph 1011.4mb 71f
7:40 3ft  -  4s 16 18 mph 1011.4mb 71f
7:30  -   -   -  18 20 mph 1011.4mb 71f
7:20  -   -   -  16 20 mph 1011.4mb 71f
7:10  -   -   -  16 20 mph 1011.4mb 71f
7:00  -   -   -  16 18 mph 1011.4mb 71f
6:50 2.5ft 9s 4s 16 18 mph 1011.5mb 72f
6:40 2.5ft  -  4s 16 18 mph 1011.5mb 72f
6:30  -   -   -  16 18 mph 1011.5mb 72f
6:20  -   -   -  16 20 mph 1011.5mb 72f
6:10  -   -   -  16 20 mph 1011.5mb 72f
6:00  -   -   -  16 20 mph 1011.5mb 72f
5:50 2.5ft 9s 5s 13 16 mph 1011.5mb 72f
5:40 2.5ft  -  5s 13 18 mph 1011.6mb 72f
5:30  -   -   -  16 18 mph 1011.5mb 72f
5:20  -   -   -  16 18 mph 1011.9mb 72f
5:10  -   -   -  16 18 mph 1011.8mb 72f
5:00  -   -   -  16 18 mph 1011.9mb 72f
4:50 2.5ft 9s 4s 13 18 mph 1012mb 72f
4:40 2.5ft  -  4s 13 18 mph 1012.1mb 72f
4:30  -   -   -  16 18 mph 1012.3mb 72f
4:20  -   -   -  16 20 mph 1012.3mb 72f
4:10  -   -   -  16 22 mph 1012.5mb 72f
4:00  -   -   -  18 22 mph 1012.5mb 72f
3:50 2.5ft 9s 5s 18 20 mph 1012.6mb 72f
3:40 2.5ft  -  5s 18 20 mph 1012.9mb 72f
3:30  -   -   -  18 20 mph 1012.9mb 72f
3:20  -   -   -  16 20 mph 1013mb 72f
3:10  -   -   -  13 18 mph 1013.3mb 72f
3:00  -   -   -  13 16 mph 1013.3mb 72f
2:50 2ft 9s 5s 13 16 mph 1013.3mb 72f
2:40  -   -   -  13 18 mph 1013.1mb 72f
2:30  -   -   -  16 18 mph 1013.1mb 72f
2:20  -   -   -  13 16 mph 1013.4mb 72f
2:10  -   -   -  13 16 mph 1013.4mb 72f
2:00  -   -   -  11 16 mph 1013.5mb 72f
1:50 2ft 9s 5s 13 16 mph 1013.6mb 72f
1:40  -   -   -  13 16 mph 1013.8mb 72f
1:30  -   -   -  13 16 mph 1013.8mb 72f
1:20  -   -   -  13 16 mph 1013.9mb 72f
1:10  -   -   -  11 16 mph 1014mb 72f
1:00  -   -   -  11 16 mph 1013.9mb 72f
12:50 2ft 10s 5s 11 13 mph 1014mb 72f
12:40 2ft  -  5s 11 13 mph 1014mb 72f
12:30  -   -   -  11 13 mph 1014.3mb 72f
12:20  -   -   -  9 13 mph 1014.3mb 72f
12:10  -   -   -  7 11 mph 1014.3mb 72f
12:00  -   -   -  9 11 mph 1014.3mb 72f
11:50 2.5ft 10s 5s 9 11 mph 1014.4mb 72f
11:40 2.5ft  -  5s 9 11 mph 1014.5mb 72f
11:30  -   -   -  9 11 mph 1014.5mb 72f
11:20  -   -   -  9 11 mph 1014.5mb 72f
11:10  -   -   -  7 9 mph 1014.8mb 72f
11:00  -   -   -  7 9 mph 1014.8mb 72f
10:50 2.5ft 9s 5s 7 11 mph 1014.8mb 72f
10:40  -   -   -  9 11 mph 1014.8mb 72f
10:30  -   -   -  9 11 mph 1014.6mb 72f
10:20  -   -   -  9 11 mph 1014.8mb 72f
10:10  -   -   -  9 11 mph 1014.9mb 72f
10:00  -   -   -  7 9 mph 1014.9mb 72f
9:50 2.5ft 8s 5s 7 11 mph 1014.9mb 72f
9:40 2.5ft  -  5s 7 11 mph 1014.9mb 72f
9:30  -   -   -  7 9 mph 1015mb 72f
9:20  -   -   -  7 9 mph 1015mb 72f
9:10  -   -   -  7 9 mph 1015mb 71f
9:00  -   -   -  4 9 mph 1015mb 71f
8:50 2.5ft 11s 5s 4 7 mph 1015mb 71f
8:40 2.5ft  -  5s 2 7 mph 1015mb 71f
8:30  -   -   -  4 7 mph 1015mb 71f
8:20  -   -   -  2 4 mph 1014.9mb 71f
8:10  -   -   -  2 4 mph 1015mb 71f
8:00  -   -   -  2 4 mph 1014.9mb 71f
7:50 2.5ft 10s 6s 2 4 mph 1014.8mb 71f
7:40 2.5ft  -  6s 2 7 mph 1014.6mb 71f
7:30  -   -   -  2 4 mph 1014.8mb 71f
7:20  -   -   -  2 4 mph 1014.6mb 71f
7:10  -   -   -  4 7 mph 1014.5mb 71f
7:00  -   -   -  4 7 mph 1014.5mb 71f
6:50 2.5ft 8s 5s 2 4 mph 1014.6mb 71f
6:40 2.5ft  -  5s 2 7 mph 1014.5mb 71f
6:30  -   -   -  4 7 mph 1014.5mb 71f
6:20  -   -   -  4 7 mph 1014.5mb 71f
6:10  -   -   -   -  4 mph 1014.5mb 71f
6:00  -   -   -  2 7 mph 1014.5mb 71f
5:50 2.5ft 8s 6s 2 4 mph 1014.4mb 72f
5:40  -   -   -  2 4 mph 1014.5mb 72f
5:30  -   -   -  4 4 mph 1014.4mb 72f
5:20  -   -   -  4 7 mph 1014.4mb 72f
5:10  -   -   -  7 7 mph 1014.3mb 72f
5:00  -   -   -  2 7 mph 1014.3mb 72f
4:50 2.5ft 10s 5s 2 4 mph 1014.1mb 72f
4:40 2.5ft  -  5s 4 7 mph 1014.1mb 72f
4:30  -   -   -  2 4 mph 1014mb 72f
4:20  -   -   -  4 4 mph 1014mb 72f
4:10  -   -   -  4 7 mph 1014mb 72f
4:00  -   -   -  7 9 mph 1014.1mb 72f
3:50 2.5ft 11s 5s 7 9 mph 1014.1mb 72f
3:40 2.5ft  -  5s 4 7 mph 1014mb 72f
3:30  -   -   -  7 9 mph 1014.3mb 72f
3:20  -   -   -  7 9 mph 1014.3mb 72f
3:10  -   -   -  7 9 mph 1014.3mb 72f
3:00  -   -   -  7 9 mph 1014.3mb -
2:50 2.5ft 8s 5s 7 7 mph 1014.5mb 72f
2:40 2.5ft  -  5s 7 9 mph 1014.5mb 72f
2:30  -   -   -  7 9 mph 1014.5mb 72f
2:20  -   -   -  7 9 mph 1014.5mb 72f
2:10  -   -   -  4 7 mph 1014.5mb 72f
2:00  -   -   -  7 9 mph 1014.5mb 72f
1:50 2.5ft 11s 5s 7 7 mph 1014.5mb 72f
1:40  -   -   -  7 9 mph 1014.5mb 72f
1:30  -   -   -  7 9 mph 1014.5mb 72f
1:20  -   -   -  7 7 mph 1014.5mb 72f
1:10  -   -   -  7 9 mph 1014.8mb 72f
1:00  -   -   -  7 9 mph 1014.8mb 72f
12:50 2.5ft 5s 5s 7 9 mph 1014.8mb 72f
12:40 2.5ft  -  5s 9 9 mph 1014.8mb 72f
12:30  -   -   -  7 9 mph 1014.8mb 72f
12:20  -   -   -  7 9 mph 1015mb 72f
12:10  -   -   -  7 9 mph 1015mb 72f
12:00  -   -   -  7 9 mph 1015mb 72f
mer. 07/26 11:50 3ft 5s 5s 7 9 mph 1015mb 72f
11:40  -   -   -  7 9 mph 1015mb 72f
11:30  -   -   -  7 9 mph 1015mb 72f
11:20  -   -   -  7 9 mph 1015mb 72f
11:10  -   -   -  7 9 mph 1014.9mb 72f
11:00  -   -   -  4 7 mph 1014.9mb 72f
10:50 3.5ft 13s 5s 4 7 mph 1014.9mb 72f
10:40  -   -   -  7 9 mph 1014.8mb 72f
10:30  -   -   -  4 7 mph 1014.8mb 72f
10:20  -   -   -  4 7 mph 1014.6mb 72f
10:10  -   -   -  7 9 mph 1014.5mb 72f
10:00  -   -   -  7 9 mph 1014.5mb 72f
9:50 3.5ft 5s 4s 7 9 mph 1014.5mb 72f
9:40 3.5ft  -  4s 9 11 mph 1014.5mb 72f
9:30  -   -   -  9 11 mph 1014.4mb 72f
9:20  -   -   -  9 11 mph 1014.3mb 72f
9:10  -   -   -  9 11 mph 1014.3mb 72f
9:00  -   -   -  11 13 mph 1014.3mb 72f
8:50 3.5ft 5s 4s 11 13 mph 1014.3mb 72f
8:40  -   -   -  13 16 mph 1014mb 72f
8:30  -   -   -  13 16 mph 1014mb 72f
8:20  -   -   -  11 13 mph 1013.9mb 72f
8:10  -   -   -  11 13 mph 1013.9mb 72f
8:00  -   -   -  11 13 mph 1013.9mb 72f
7:50 3.5ft 4s 5s 11 13 mph 1013.9mb -
7:40 3.5ft  -  5s 11 16 mph 1013.8mb 72f
7:30  -   -   -  11 13 mph 1013.8mb 72f
7:20  -   -   -  11 16 mph 1013.6mb 72f
7:10  -   -   -  11 13 mph 1013.8mb 72f
7:00  -   -   -  13 16 mph 1013.6mb 72f
6:50 3ft 4s 4s 13 16 mph 1013.5mb 72f
6:40  -   -   -  13 16 mph 1013.5mb 72f
6:30  -   -   -  13 16 mph 1013.5mb 72f
6:20  -   -   -  13 16 mph 1013.5mb 72f
6:10  -   -   -  13 16 mph 1013.5mb 72f
6:00  -   -   -  13 16 mph 1013.5mb 72f
5:50 3ft 9s 5s 13 18 mph 1013.5mb 72f
5:40  -   -   -  16 18 mph 1013.6mb 72f
5:30  -   -   -  13 18 mph 1013.8mb 72f
5:20  -   -   -  13 18 mph 1014mb 72f
5:10  -   -   -  16 18 mph 1014mb 72f
5:00  -   -   -  16 18 mph 1014mb 72f
4:50 2.5ft 12s 5s 16 18 mph 1014.3mb 72f
4:40 2.5ft  -  5s 16 18 mph 1014.5mb 72f
4:30  -   -   -  13 18 mph 1014.5mb 72f
4:20  -   -   -  13 16 mph 1014.5mb 72f
4:10  -   -   -  13 16 mph 1014.6mb 72f
4:00  -   -   -  13 18 mph 1014.8mb 72f
3:50 2.5ft 9s 5s 13 18 mph 1014.9mb 72f
3:40 2.5ft  -  5s 16 18 mph 1014.8mb 72f
3:30  -   -   -  13 18 mph 1014.9mb 72f
3:20  -   -   -  13 18 mph 1015mb 72f
3:10  -   -   -  13 16 mph 1015mb 72f
3:00  -   -   -  13 16 mph 1015mb 72f
2:50 2ft 13s 6s 11 16 mph 1015.1mb 72f
2:40 2ft  -  6s 11 16 mph 1015.3mb 72f
2:30  -   -   -  11 13 mph 1015.4mb 72f
2:20  -   -   -  11 13 mph 1015.5mb 72f
2:10  -   -   -  11 13 mph 1015.6mb 72f
2:00  -   -   -  11 16 mph 1015.5mb 72f
1:50 2ft 11s 6s 11 16 mph 1015.5mb 72f
1:40 2ft  -  6s 11 13 mph 1015.6mb 72f
1:30  -   -   -  11 16 mph 1015.9mb 72f
1:20  -   -   -  11 13 mph 1016mb 72f
1:10  -   -   -  11 13 mph 1016mb 72f
1:00  -   -   -  9 11 mph 1016.1mb 72f
12:50 2ft 11s 6s 9 11 mph 1016.1mb 72f
12:40 2ft  -  6s 9 13 mph 1016.1mb 72f
12:30  -   -   -  9 11 mph 1016.1mb 72f
12:20  -   -   -  7 9 mph 1016.1mb -
12:10  -   -   -  9 11 mph 1016.1mb 72f
12:00  -   -   -  9 11 mph 1016.3mb 72f
11:50 2.5ft 11s 6s 9 11 mph 1016.4mb 72f
11:40  -   -   -  9 11 mph 1016.4mb 72f
11:30  -   -   -  9 11 mph 1016.4mb 72f
11:20  -   -   -  7 9 mph 1016.4mb 72f
11:10  -   -   -  4 9 mph 1016.4mb 72f
11:00  -   -   -  7 9 mph 1016.5mb 72f
10:50 2.5ft 10s 5s 7 7 mph 1016.5mb 72f
10:40 2.5ft  -  5s 7 9 mph 1016.5mb 72f
10:30  -   -   -  7 9 mph 1016.5mb 72f
10:20  -   -   -  4 7 mph 1016.5mb 72f
10:10  -   -   -  4 4 mph 1016.5mb 72f
10:00  -   -   -  4 9 mph 1016.5mb 71f
9:50 2.5ft 10s 6s 4 7 mph 1016.5mb 71f
9:40 2.5ft  -  6s 4 7 mph 1016.5mb 71f
9:30  -   -   -  4 7 mph 1016.5mb 71f
9:20  -   -   -  4 7 mph 1016.5mb 71f
9:10  -   -   -  2 7 mph 1016.5mb 71f
9:00  -   -   -  4 7 mph 1016.4mb 71f
8:50 2.5ft 12s 6s 4 7 mph 1016.4mb 71f
8:40 2.5ft  -  6s 4 7 mph 1016.5mb 71f
8:30  -   -   -  2 7 mph 1016.5mb 71f
8:20  -   -   -  4 7 mph 1016.3mb 71f
8:10  -   -   -  2 7 mph 1016.3mb 71f
8:00  -   -   -  4 7 mph 1016.1mb 71f
7:50 2.5ft 7s 6s 4 7 mph 1016.1mb 71f
7:40  -   -   -  4 7 mph 1016mb 71f
7:30  -   -   -  4 7 mph 1016mb 71f
7:20  -   -   -  4 7 mph 1016mb 71f
7:10  -   -   -  4 7 mph 1016mb 71f
7:00  -   -   -  4 7 mph 1015.9mb 71f
6:50 2.5ft 8s 6s 7 9 mph 1016mb 71f
6:40 2.5ft  -  6s 4 9 mph 1015.9mb 71f
6:30  -   -   -  7 9 mph 1015.9mb 71f
6:20  -   -   -  7 9 mph 1016mb 71f
6:10  -   -   -  7 9 mph 1015.9mb 72f
6:00  -   -   -  7 11 mph 1015.9mb 71f
5:50 2.5ft 11s 6s 7 9 mph 1015.9mb 72f
5:40 2.5ft  -  6s 7 9 mph 1015.8mb 72f
5:30  -   -   -  7 9 mph 1015.9mb 72f
5:20  -   -   -  7 11 mph 1015.9mb 72f
5:10  -   -   -  7 11 mph 1015.6mb 72f
5:00  -   -   -  7 9 mph 1015.6mb 72f
4:50 2.5ft 10s 6s 7 9 mph 1015.6mb -
4:40 2.5ft  -  6s 7 9 mph 1015.5mb 72f
4:30  -   -   -  7 9 mph 1015.5mb 72f
4:20  -   -   -  7 9 mph 1015.5mb 72f
4:10  -   -   -  7 9 mph 1015.5mb 72f
4:00  -   -   -  7 9 mph 1015.5mb 72f
3:50 2.5ft 11s 6s 7 9 mph 1015.6mb 72f
3:40 2.5ft  -  6s 7 9 mph 1015.6mb 72f
3:30  -   -   -  7 9 mph 1015.6mb 72f
3:20  -   -   -  7 9 mph 1015.6mb 72f
3:10  -   -   -  7 9 mph 1015.5mb 72f
3:00  -   -   -  7 9 mph 1015.5mb 72f
2:50 2.5ft 12s 6s 7 11 mph 1015.5mb 72f
2:40 2.5ft  -  6s 7 9 mph 1015.5mb 72f
2:30  -   -   -  7 11 mph 1015.5mb 72f
2:20  -   -   -  9 11 mph 1015.5mb 72f
2:10  -   -   -  9 11 mph 1015.5mb 72f
2:00  -   -   -  9 11 mph 1015.5mb 72f
1:50 2.5ft 11s 6s 9 11 mph 1015.6mb 72f
1:40 2.5ft  -  6s 9 11 mph 1015.6mb 72f
1:30  -   -   -  9 11 mph 1015.6mb 72f
1:20  -   -   -  9 11 mph 1015.6mb 72f
1:10  -   -   -  9 11 mph 1015.5mb 72f
1:00  -   -   -  9 11 mph 1015.5mb 72f
12:50 2.5ft 11s 6s 9 9 mph 1015.5mb 72f
12:40  -   -   -  7 9 mph 1015.5mb 72f
12:30  -   -   -  7 9 mph 1015.5mb 72f
12:20  -   -   -  4 7 mph 1015.5mb 72f
12:10  -   -   -  4 7 mph 1015.5mb 72f
12:00  -   -   -  4 7 mph 1015.5mb 72f
mar. 07/25 11:50 2.5ft 11s 5s 4 7 mph 1015.5mb 72f
11:40 2.5ft  -  5s 4 7 mph 1015.4mb 72f
11:30  -   -   -  7 9 mph 1015.4mb 72f
11:20  -   -   -  7 9 mph 1015.4mb 72f
11:10  -   -   -  7 9 mph 1015.3mb 72f
11:00  -   -   -  9 11 mph 1015.1mb 72f
10:50 2.5ft 9s 5s 7 9 mph 1015.1mb 72f
10:40 2.5ft  -  5s 7 9 mph 1015.1mb 72f
10:30  -   -   -  7 11 mph 1015.1mb 72f
10:20  -   -   -  7 11 mph 1015mb 72f
10:10  -   -   -  7 9 mph 1015.1mb 72f
10:00  -   -   -  9 9 mph 1015.1mb 72f
9:50 2.5ft 11s 5s 9 11 mph 1015mb 72f
9:40 2.5ft  -  5s 9 11 mph 1014.9mb 72f
9:30  -   -   -  9 11 mph 1014.8mb -
9:20  -   -   -  9 11 mph 1014.6mb 72f
9:10  -   -   -  9 11 mph 1014.5mb 72f
9:00  -   -   -  9 11 mph 1014.5mb 72f
8:50 2.5ft 11s 6s 9 11 mph 1014.4mb 72f
8:40  -   -   -  9 11 mph 1014.3mb 72f
8:30  -   -   -  9 11 mph 1014.3mb 72f
8:20  -   -   -  9 11 mph 1014.3mb 72f
8:10  -   -   -  9 11 mph 1014.3mb 72f
8:00  -   -   -  9 11 mph 1014.3mb 72f
7:50 2.5ft 13s 6s 9 11 mph 1014.4mb 72f
7:40  -   -   -  9 11 mph 1014.5mb 72f
7:30  -   -   -  9 11 mph 1014.5mb 72f
7:20  -   -   -  9 13 mph 1014.5mb 72f
7:10  -   -   -  11 13 mph 1014.5mb 73f
7:00  -   -   -  11 13 mph 1014.5mb 73f
6:50 3ft 13s 6s 11 13 mph 1014.5mb 73f
6:40 3ft  -  6s 11 13 mph 1014.5mb 73f
6:30  -   -   -  11 13 mph 1014.3mb 73f
6:20  -   -   -  11 13 mph 1014.3mb 73f
6:10  -   -   -  11 13 mph 1014.3mb 73f
6:00  -   -   -  11 16 mph 1014.3mb 73f
5:50 3ft 8s 6s 11 13 mph 1014.4mb 73f
5:40  -   -   -  11 13 mph 1014.5mb 73f
5:30  -   -   -  11 16 mph 1014.5mb 72f
5:20  -   -   -  13 16 mph 1014.5mb 72f
5:10  -   -   -  13 16 mph 1014.5mb 72f
5:00  -   -   -  13 16 mph 1014.5mb 72f
4:50 3ft 8s 6s 11 16 mph 1014.6mb 72f
4:40  -   -   -  11 16 mph 1014.6mb 72f
4:30  -   -   -  11 13 mph 1014.8mb 72f
4:20  -   -   -  11 13 mph 1014.8mb 72f
4:10  -   -   -  11 13 mph 1014.9mb 72f
4:00  -   -   -  11 16 mph 1014.8mb 72f
3:50 2.5ft 13s 6s 11 13 mph 1014.8mb 72f
3:40  -   -   -  11 13 mph 1014.8mb 73f
3:30  -   -   -  11 13 mph 1014.8mb 73f
3:20  -   -   -  11 13 mph 1015mb 72f
3:10  -   -   -  11 13 mph 1015mb 72f
3:00  -   -   -  11 13 mph 1015mb 72f
2:50 2.5ft  -  7s 11 13 mph 1015.1mb 72f
2:40 2.5ft 8s 7s  -  mph - -
2:30  -   -   -  11 13 mph 1015.1mb 72f
2:20  -   -   -  11 13 mph 1015.3mb 72f
2:10  -   -   -  11 13 mph 1015.4mb 72f
2:00  -   -   -  11 13 mph 1015.4mb 72f
1:50 2.5ft 8s 8s 11 13 mph 1015.4mb 72f
1:40 2.5ft  -  8s 11 13 mph 1015.4mb 72f
1:30  -   -   -  9 11 mph 1015.4mb 72f
1:20  -   -   -  9 13 mph 1015.4mb 72f
1:10  -   -   -  9 11 mph 1015.5mb 72f
1:00  -   -   -  9 11 mph 1015.5mb 72f
12:50 2.5ft 9s 8s 9 11 mph 1015.6mb 72f
12:40  -   -   -  9 11 mph 1015.6mb 72f
12:30  -   -   -  9 11 mph 1015.5mb 72f
12:20  -   -   -  7 9 mph 1015.5mb 72f
12:10  -   -   -  7 9 mph 1015.6mb 72f
12:00  -   -   -  7 9 mph 1015.6mb 72f
11:50 2.5ft 13s 7s 7 9 mph 1015.6mb 72f
11:40 2.5ft  -  7s 7 9 mph 1015.6mb 72f
11:30  -   -   -  7 7 mph 1015.6mb 72f
11:20  -   -   -  4 7 mph 1015.5mb 72f
11:10  -   -   -  7 9 mph 1015.5mb 72f
11:00  -   -   -  4 7 mph 1015.5mb 72f
10:50 2.5ft 9s 7s 4 7 mph 1015.5mb 72f
10:40  -   -   -  4 7 mph 1015.5mb 72f
10:30  -   -   -  7 9 mph 1015.4mb 72f
10:20  -   -   -  4 7 mph 1015.4mb 72f
10:10  -   -   -  4 7 mph 1015.5mb 72f
10:00  -   -   -  4 9 mph 1015.4mb 72f
9:50 2.5ft 11s 7s 4 7 mph 1015.3mb 72f
9:40 2.5ft  -  7s 4 7 mph 1015.1mb 72f
9:30  -   -   -  4 7 mph 1015.1mb 72f
9:20  -   -   -  4 4 mph 1015mb 72f
9:10  -   -   -  4 7 mph 1015mb 72f
9:00  -   -   -  4 7 mph 1014.9mb 72f
8:50 2.5ft 13s 7s 4 7 mph 1014.9mb 72f
8:40  -   -   -  4 7 mph 1015mb 72f
8:30  -   -   -  4 7 mph 1015mb 71f
8:20  -   -   -  4 4 mph 1015mb 71f
8:10  -   -   -  4 7 mph 1015mb 71f
8:00  -   -   -  4 7 mph 1014.9mb 71f
7:50 2.5ft 9s 7s 4 7 mph 1014.8mb 71f
7:40 2.5ft  -  7s 4 7 mph 1014.8mb 71f
7:30  -   -   -  4 7 mph 1014.6mb 71f
7:20  -   -   -  4 7 mph 1014.6mb 71f
7:10  -   -   -  4 7 mph 1014.5mb 71f
7:00  -   -   -  4 9 mph 1014.5mb 71f
6:50 3ft 9s 8s 7 9 mph 1014.5mb 71f
6:40 3ft  -  8s 7 9 mph 1014.4mb 71f
6:30  -   -   -  7 9 mph 1014.3mb 71f
6:20  -   -   -  7 9 mph 1014.1mb 71f
6:10  -   -   -  7 9 mph 1014.1mb 71f
6:00  -   -   -  7 9 mph 1014.1mb 71f
5:50 2.5ft 10s 7s 7 9 mph 1014mb 71f
5:40 2.5ft  -  7s 4 9 mph 1014mb 71f
5:30  -   -   -  4 9 mph 1013.9mb 71f
5:20  -   -   -  7 9 mph 1013.8mb 71f
5:10  -   -   -  4 7 mph 1013.6mb 71f
5:00  -   -   -  4 7 mph 1013.5mb 71f
4:50 2.5ft 11s 7s 4 9 mph 1013.5mb 71f
4:40 2.5ft  -  7s 7 7 mph 1013.5mb 71f
4:30  -   -   -  7 9 mph 1013.4mb 71f
4:20  -   -   -  7 9 mph 1013.4mb 71f
4:10  -   -   -  7 9 mph 1013.5mb 71f
4:00  -   -   -  7 9 mph 1013.5mb 71f
3:50 2.5ft 8s 7s 7 9 mph 1013.4mb 71f
3:40 2.5ft  -  7s 4 7 mph 1013.5mb 71f
3:30  -   -   -  4 4 mph 1013.5mb 71f
3:20  -   -   -  4 7 mph 1013.6mb 71f
3:10  -   -   -  4 7 mph 1013.5mb 71f
3:00  -   -   -  4 7 mph 1013.5mb 71f
2:50 2.5ft 11s 8s 4 7 mph 1013.6mb 71f
2:40 2.5ft  -  8s 4 7 mph 1013.8mb 71f
2:30  -   -   -  4 7 mph 1013.9mb 71f
2:20  -   -   -  4 4 mph 1013.8mb 71f
2:10  -   -   -  4 7 mph 1013.9mb 71f
2:00  -   -   -  4 7 mph 1014mb 71f
1:50 2.5ft 9s 8s 4 9 mph 1014mb 71f
1:40 2.5ft  -  8s 4 9 mph 1013.9mb 71f
1:30  -   -   -  7 9 mph 1014mb 71f
1:20  -   -   -  4 7 mph 1014mb 71f
1:10  -   -   -  7 9 mph 1013.9mb 71f
1:00  -   -   -  7 9 mph 1013.9mb 71f
12:50 2.5ft 10s 8s 7 9 mph 1013.9mb -
12:40 2.5ft  -  8s 7 9 mph 1013.9mb 71f
12:30  -   -   -  7 9 mph 1013.8mb 71f
12:20  -   -   -  7 9 mph 1013.8mb 71f
12:10  -   -   -  7 9 mph 1013.8mb 71f
12:00  -   -   -  7 9 mph 1013.8mb 71f
lun. 07/24 11:50 2.5ft 11s 7s 7 9 mph 1013.5mb 71f
11:40  -   -   -  9 11 mph 1013.5mb 71f
11:30  -   -   -  7 11 mph 1013.4mb 71f
11:20  -   -   -  9 11 mph 1013.1mb 71f
11:10  -   -   -  7 9 mph 1013.1mb 71f
11:00  -   -   -  7 9 mph 1013mb 71f
10:50 2.5ft 14s 7s 7 11 mph 1013mb 71f
10:40  -   -   -  7 9 mph 1012.9mb 71f
10:30  -   -   -  7 9 mph 1012.9mb 71f
10:20  -   -   -  7 9 mph 1012.9mb 71f
10:10  -   -   -  7 9 mph 1012.8mb 71f
10:00  -   -   -  7 11 mph 1012.6mb 71f
9:50 2.5ft 14s 6s 7 9 mph 1012.5mb 71f
9:40 2.5ft  -  6s 7 11 mph 1012.4mb 71f
9:30  -   -   -  9 11 mph 1012.4mb 71f
9:20  -   -   -  9 11 mph 1012.4mb 71f
9:10  -   -   -  9 11 mph 1012mb 71f
9:00  -   -   -  9 13 mph 1012mb 71f
8:50 3ft 8s 6s 9 13 mph 1011.9mb 71f
8:40  -   -   -  9 13 mph 1011.9mb 71f
8:30  -   -   -  9 13 mph 1011.8mb 71f
8:20  -   -   -  11 13 mph 1011.8mb 71f
8:10  -   -   -  11 13 mph 1011.6mb 71f
8:00  -   -   -  11 13 mph 1011.5mb 71f
7:50 2.5ft 11s 7s 9 11 mph 1011.5mb 71f
7:40 2.5ft  -  7s 9 11 mph 1011.5mb 72f
7:30  -   -   -  9 11 mph 1011.5mb 72f
7:20  -   -   -  9 11 mph 1011.4mb 72f
7:10  -   -   -  9 11 mph 1011.3mb 72f